sensor_id;sensor_type;location;lat;lon;timestamp;P1;durP1;ratioP1;P2;durP2;ratioP2
17488;SDS011;8861;52.644;4.734;2023-02-28T00:00:32;5.27;;;3.80;;
17488;SDS011;8861;52.644;4.734;2023-02-28T00:03:01;7.77;;;3.90;;
17488;SDS011;8861;52.644;4.734;2023-02-28T00:05:29;4.83;;;3.87;;
17488;SDS011;8861;52.644;4.734;2023-02-28T00:07:56;6.40;;;4.27;;
17488;SDS011;8861;52.644;4.734;2023-02-28T00:10:24;8.23;;;4.03;;
17488;SDS011;8861;52.644;4.734;2023-02-28T00:12:53;6.10;;;4.20;;
17488;SDS011;8861;52.644;4.734;2023-02-28T00:15:22;7.87;;;4.20;;
17488;SDS011;8861;52.644;4.734;2023-02-28T00:17:50;8.13;;;4.80;;
17488;SDS011;8861;52.644;4.734;2023-02-28T00:20:18;5.73;;;3.93;;
17488;SDS011;8861;52.644;4.734;2023-02-28T00:22:46;7.67;;;4.47;;
17488;SDS011;8861;52.644;4.734;2023-02-28T00:25:16;6.23;;;3.80;;
17488;SDS011;8861;52.644;4.734;2023-02-28T00:27:46;6.37;;;4.10;;
17488;SDS011;8861;52.644;4.734;2023-02-28T00:30:14;6.73;;;4.60;;
17488;SDS011;8861;52.644;4.734;2023-02-28T00:32:42;8.13;;;4.00;;
17488;SDS011;8861;52.644;4.734;2023-02-28T00:35:10;6.33;;;4.10;;
17488;SDS011;8861;52.644;4.734;2023-02-28T00:37:39;5.63;;;4.07;;
17488;SDS011;8861;52.644;4.734;2023-02-28T00:40:06;6.03;;;3.83;;
17488;SDS011;8861;52.644;4.734;2023-02-28T00:42:34;6.27;;;3.77;;
17488;SDS011;8861;52.644;4.734;2023-02-28T00:45:02;6.87;;;3.70;;
17488;SDS011;8861;52.644;4.734;2023-02-28T00:47:30;5.20;;;3.70;;
17488;SDS011;8861;52.644;4.734;2023-02-28T00:49:57;7.53;;;3.83;;
17488;SDS011;8861;52.644;4.734;2023-02-28T00:52:25;6.37;;;3.70;;
17488;SDS011;8861;52.644;4.734;2023-02-28T00:54:53;5.53;;;3.73;;
17488;SDS011;8861;52.644;4.734;2023-02-28T00:57:20;6.53;;;3.80;;
17488;SDS011;8861;52.644;4.734;2023-02-28T00:59:47;6.33;;;3.80;;
17488;SDS011;8861;52.644;4.734;2023-02-28T01:02:14;6.77;;;4.10;;
17488;SDS011;8861;52.644;4.734;2023-02-28T01:04:43;5.97;;;3.90;;
17488;SDS011;8861;52.644;4.734;2023-02-28T01:07:10;7.93;;;3.87;;
17488;SDS011;8861;52.644;4.734;2023-02-28T01:09:37;7.27;;;4.30;;
17488;SDS011;8861;52.644;4.734;2023-02-28T01:12:05;4.93;;;3.63;;
17488;SDS011;8861;52.644;4.734;2023-02-28T01:14:34;5.17;;;3.70;;
17488;SDS011;8861;52.644;4.734;2023-02-28T01:17:01;6.70;;;4.00;;
17488;SDS011;8861;52.644;4.734;2023-02-28T01:19:28;7.30;;;4.33;;
17488;SDS011;8861;52.644;4.734;2023-02-28T01:21:55;5.80;;;3.80;;
17488;SDS011;8861;52.644;4.734;2023-02-28T01:24:22;6.30;;;4.10;;
17488;SDS011;8861;52.644;4.734;2023-02-28T01:26:49;7.00;;;4.20;;
17488;SDS011;8861;52.644;4.734;2023-02-28T01:29:18;7.47;;;3.97;;
17488;SDS011;8861;52.644;4.734;2023-02-28T01:31:45;7.70;;;4.57;;
17488;SDS011;8861;52.644;4.734;2023-02-28T01:34:12;6.27;;;3.90;;
17488;SDS011;8861;52.644;4.734;2023-02-28T01:36:39;9.73;;;4.50;;
17488;SDS011;8861;52.644;4.734;2023-02-28T01:39:06;6.00;;;4.07;;
17488;SDS011;8861;52.644;4.734;2023-02-28T01:41:33;6.90;;;3.90;;
17488;SDS011;8861;52.644;4.734;2023-02-28T01:44:02;6.37;;;3.87;;
17488;SDS011;8861;52.644;4.734;2023-02-28T01:46:32;8.60;;;3.80;;
17488;SDS011;8861;52.644;4.734;2023-02-28T01:49:02;9.40;;;4.53;;
17488;SDS011;8861;52.644;4.734;2023-02-28T01:51:34;6.47;;;3.57;;
17488;SDS011;8861;52.644;4.734;2023-02-28T01:54:16;6.53;;;3.97;;
17488;SDS011;8861;52.644;4.734;2023-02-28T01:56:46;5.87;;;3.70;;
17488;SDS011;8861;52.644;4.734;2023-02-28T01:59:20;6.40;;;3.87;;
17488;SDS011;8861;52.644;4.734;2023-02-28T02:01:54;5.00;;;3.13;;
17488;SDS011;8861;52.644;4.734;2023-02-28T02:04:21;8.47;;;3.67;;
17488;SDS011;8861;52.644;4.734;2023-02-28T02:06:52;8.03;;;4.00;;
17488;SDS011;8861;52.644;4.734;2023-02-28T02:09:19;10.10;;;3.50;;
17488;SDS011;8861;52.644;4.734;2023-02-28T02:11:48;5.83;;;3.47;;
17488;SDS011;8861;52.644;4.734;2023-02-28T02:17:22;5.90;;;3.40;;
17488;SDS011;8861;52.644;4.734;2023-02-28T02:20:14;5.60;;;3.50;;
17488;SDS011;8861;52.644;4.734;2023-02-28T02:23:02;3.87;;;3.00;;
17488;SDS011;8861;52.644;4.734;2023-02-28T02:25:53;6.93;;;3.20;;
17488;SDS011;8861;52.644;4.734;2023-02-28T02:28:29;4.13;;;3.00;;
17488;SDS011;8861;52.644;4.734;2023-02-28T02:31:13;5.20;;;3.20;;
17488;SDS011;8861;52.644;4.734;2023-02-28T02:34:25;4.80;;;2.73;;
17488;SDS011;8861;52.644;4.734;2023-02-28T02:37:03;5.97;;;3.17;;
17488;SDS011;8861;52.644;4.734;2023-02-28T02:39:40;4.97;;;3.23;;
17488;SDS011;8861;52.644;4.734;2023-02-28T02:42:16;7.07;;;3.10;;
17488;SDS011;8861;52.644;4.734;2023-02-28T02:44:53;5.13;;;3.33;;
17488;SDS011;8861;52.644;4.734;2023-02-28T02:47:25;5.07;;;2.93;;
17488;SDS011;8861;52.644;4.734;2023-02-28T02:49:57;5.53;;;3.30;;
17488;SDS011;8861;52.644;4.734;2023-02-28T02:52:32;5.93;;;3.40;;
17488;SDS011;8861;52.644;4.734;2023-02-28T02:55:04;4.03;;;3.10;;
17488;SDS011;8861;52.644;4.734;2023-02-28T02:57:33;5.83;;;3.33;;
17488;SDS011;8861;52.644;4.734;2023-02-28T03:00:05;5.50;;;3.70;;
17488;SDS011;8861;52.644;4.734;2023-02-28T03:02:34;3.67;;;3.00;;
17488;SDS011;8861;52.644;4.734;2023-02-28T03:05:07;4.37;;;3.07;;
17488;SDS011;8861;52.644;4.734;2023-02-28T03:07:40;4.17;;;3.00;;
17488;SDS011;8861;52.644;4.734;2023-02-28T03:12:59;5.03;;;2.80;;
17488;SDS011;8861;52.644;4.734;2023-02-28T03:15:36;6.73;;;3.00;;
17488;SDS011;8861;52.644;4.734;2023-02-28T03:18:14;4.70;;;2.90;;
17488;SDS011;8861;52.644;4.734;2023-02-28T03:20:54;4.40;;;2.70;;
17488;SDS011;8861;52.644;4.734;2023-02-28T03:23:29;4.00;;;2.70;;
17488;SDS011;8861;52.644;4.734;2023-02-28T03:26:06;5.60;;;2.60;;
17488;SDS011;8861;52.644;4.734;2023-02-28T03:28:40;5.07;;;3.63;;
17488;SDS011;8861;52.644;4.734;2023-02-28T03:31:13;3.67;;;2.90;;
17488;SDS011;8861;52.644;4.734;2023-02-28T03:33:44;4.90;;;3.00;;
17488;SDS011;8861;52.644;4.734;2023-02-28T03:36:21;4.10;;;2.87;;
17488;SDS011;8861;52.644;4.734;2023-02-28T03:38:56;5.83;;;2.90;;
17488;SDS011;8861;52.644;4.734;2023-02-28T03:41:29;5.17;;;2.87;;
17488;SDS011;8861;52.644;4.734;2023-02-28T03:43:59;5.60;;;3.20;;
17488;SDS011;8861;52.644;4.734;2023-02-28T03:46:31;4.73;;;3.33;;
17488;SDS011;8861;52.644;4.734;2023-02-28T03:49:02;3.97;;;3.00;;
17488;SDS011;8861;52.644;4.734;2023-02-28T03:51:33;4.47;;;3.10;;
17488;SDS011;8861;52.644;4.734;2023-02-28T03:54:03;4.77;;;2.70;;
17488;SDS011;8861;52.644;4.734;2023-02-28T03:56:36;4.03;;;2.77;;
17488;SDS011;8861;52.644;4.734;2023-02-28T03:59:06;6.00;;;3.00;;
17488;SDS011;8861;52.644;4.734;2023-02-28T04:01:39;6.60;;;3.40;;
17488;SDS011;8861;52.644;4.734;2023-02-28T04:04:09;4.40;;;2.90;;
17488;SDS011;8861;52.644;4.734;2023-02-28T04:06:38;5.60;;;2.97;;
17488;SDS011;8861;52.644;4.734;2023-02-28T04:09:07;6.20;;;3.00;;
17488;SDS011;8861;52.644;4.734;2023-02-28T04:11:36;7.20;;;3.50;;
17488;SDS011;8861;52.644;4.734;2023-02-28T04:14:05;7.47;;;3.37;;
17488;SDS011;8861;52.644;4.734;2023-02-28T04:16:33;5.10;;;2.93;;
17488;SDS011;8861;52.644;4.734;2023-02-28T04:19:02;3.73;;;3.00;;
17488;SDS011;8861;52.644;4.734;2023-02-28T04:21:31;4.33;;;2.90;;
17488;SDS011;8861;52.644;4.734;2023-02-28T04:24:00;7.30;;;3.50;;
17488;SDS011;8861;52.644;4.734;2023-02-28T04:26:28;4.90;;;3.10;;
17488;SDS011;8861;52.644;4.734;2023-02-28T04:28:56;5.53;;;3.10;;
17488;SDS011;8861;52.644;4.734;2023-02-28T04:31:23;5.83;;;2.97;;
17488;SDS011;8861;52.644;4.734;2023-02-28T04:33:50;5.40;;;3.20;;
17488;SDS011;8861;52.644;4.734;2023-02-28T04:36:17;6.00;;;3.10;;
17488;SDS011;8861;52.644;4.734;2023-02-28T04:38:45;4.33;;;2.90;;
17488;SDS011;8861;52.644;4.734;2023-02-28T04:41:14;5.33;;;3.20;;
17488;SDS011;8861;52.644;4.734;2023-02-28T04:43:41;4.70;;;2.97;;
17488;SDS011;8861;52.644;4.734;2023-02-28T04:46:09;5.00;;;3.20;;
17488;SDS011;8861;52.644;4.734;2023-02-28T04:48:37;4.17;;;2.93;;
17488;SDS011;8861;52.644;4.734;2023-02-28T04:51:06;4.20;;;3.10;;
17488;SDS011;8861;52.644;4.734;2023-02-28T04:53:34;4.70;;;3.30;;
17488;SDS011;8861;52.644;4.734;2023-02-28T04:56:01;5.40;;;3.13;;
17488;SDS011;8861;52.644;4.734;2023-02-28T04:58:30;7.20;;;3.00;;
17488;SDS011;8861;52.644;4.734;2023-02-28T05:01:01;5.57;;;3.10;;
17488;SDS011;8861;52.644;4.734;2023-02-28T05:03:28;5.80;;;3.07;;
17488;SDS011;8861;52.644;4.734;2023-02-28T05:05:55;3.93;;;2.67;;
17488;SDS011;8861;52.644;4.734;2023-02-28T05:08:23;5.00;;;3.00;;
17488;SDS011;8861;52.644;4.734;2023-02-28T05:10:50;4.93;;;2.77;;
17488;SDS011;8861;52.644;4.734;2023-02-28T05:13:17;3.30;;;2.63;;
17488;SDS011;8861;52.644;4.734;2023-02-28T05:15:45;4.93;;;2.80;;
17488;SDS011;8861;52.644;4.734;2023-02-28T05:18:12;4.27;;;2.73;;
17488;SDS011;8861;52.644;4.734;2023-02-28T05:20:39;3.33;;;2.60;;
17488;SDS011;8861;52.644;4.734;2023-02-28T05:23:08;3.83;;;2.80;;
17488;SDS011;8861;52.644;4.734;2023-02-28T05:25:38;5.47;;;2.70;;
17488;SDS011;8861;52.644;4.734;2023-02-28T05:28:05;3.10;;;2.70;;
17488;SDS011;8861;52.644;4.734;2023-02-28T05:30:33;5.40;;;2.90;;
17488;SDS011;8861;52.644;4.734;2023-02-28T05:33:01;6.10;;;3.33;;
17488;SDS011;8861;52.644;4.734;2023-02-28T05:35:29;4.03;;;3.30;;
17488;SDS011;8861;52.644;4.734;2023-02-28T05:37:55;4.60;;;3.27;;
17488;SDS011;8861;52.644;4.734;2023-02-28T05:40:22;4.77;;;3.10;;
17488;SDS011;8861;52.644;4.734;2023-02-28T05:42:52;5.87;;;3.40;;
17488;SDS011;8861;52.644;4.734;2023-02-28T05:45:19;5.40;;;3.20;;
17488;SDS011;8861;52.644;4.734;2023-02-28T05:47:46;4.87;;;3.13;;
17488;SDS011;8861;52.644;4.734;2023-02-28T05:50:14;4.60;;;3.13;;
17488;SDS011;8861;52.644;4.734;2023-02-28T05:52:42;4.93;;;3.97;;
17488;SDS011;8861;52.644;4.734;2023-02-28T05:55:09;5.00;;;3.27;;
17488;SDS011;8861;52.644;4.734;2023-02-28T05:57:35;4.57;;;3.20;;
17488;SDS011;8861;52.644;4.734;2023-02-28T06:00:03;4.77;;;3.53;;
17488;SDS011;8861;52.644;4.734;2023-02-28T06:02:30;4.47;;;3.20;;
17488;SDS011;8861;52.644;4.734;2023-02-28T06:04:57;4.43;;;3.63;;
17488;SDS011;8861;52.644;4.734;2023-02-28T06:07:26;4.10;;;3.50;;
17488;SDS011;8861;52.644;4.734;2023-02-28T06:09:53;5.10;;;3.57;;
17488;SDS011;8861;52.644;4.734;2023-02-28T06:12:20;4.47;;;3.50;;
17488;SDS011;8861;52.644;4.734;2023-02-28T06:14:47;4.93;;;3.37;;
17488;SDS011;8861;52.644;4.734;2023-02-28T06:17:14;4.40;;;3.50;;
17488;SDS011;8861;52.644;4.734;2023-02-28T06:19:41;4.03;;;3.33;;
17488;SDS011;8861;52.644;4.734;2023-02-28T06:22:08;6.70;;;4.37;;
17488;SDS011;8861;52.644;4.734;2023-02-28T06:24:36;4.53;;;3.50;;
17488;SDS011;8861;52.644;4.734;2023-02-28T06:27:03;4.70;;;4.20;;
17488;SDS011;8861;52.644;4.734;2023-02-28T06:29:31;5.80;;;4.17;;
17488;SDS011;8861;52.644;4.734;2023-02-28T06:31:58;5.57;;;4.20;;
17488;SDS011;8861;52.644;4.734;2023-02-28T06:34:25;5.83;;;4.20;;
17488;SDS011;8861;52.644;4.734;2023-02-28T06:36:52;5.90;;;4.47;;
17488;SDS011;8861;52.644;4.734;2023-02-28T06:39:19;4.80;;;4.23;;
17488;SDS011;8861;52.644;4.734;2023-02-28T06:41:48;6.00;;;4.00;;
17488;SDS011;8861;52.644;4.734;2023-02-28T06:44:17;4.97;;;4.00;;
17488;SDS011;8861;52.644;4.734;2023-02-28T06:46:44;5.60;;;4.27;;
17488;SDS011;8861;52.644;4.734;2023-02-28T06:49:11;4.60;;;3.70;;
17488;SDS011;8861;52.644;4.734;2023-02-28T06:51:42;5.73;;;3.87;;
17488;SDS011;8861;52.644;4.734;2023-02-28T06:54:11;3.83;;;3.40;;
17488;SDS011;8861;52.644;4.734;2023-02-28T06:56:38;3.90;;;3.33;;
17488;SDS011;8861;52.644;4.734;2023-02-28T06:59:07;3.97;;;3.30;;
17488;SDS011;8861;52.644;4.734;2023-02-28T07:01:34;3.73;;;3.43;;
17488;SDS011;8861;52.644;4.734;2023-02-28T07:04:01;5.00;;;4.00;;
17488;SDS011;8861;52.644;4.734;2023-02-28T07:06:29;6.87;;;5.77;;
17488;SDS011;8861;52.644;4.734;2023-02-28T07:08:56;13.00;;;8.87;;
17488;SDS011;8861;52.644;4.734;2023-02-28T07:11:24;14.33;;;9.50;;
17488;SDS011;8861;52.644;4.734;2023-02-28T07:13:53;13.37;;;9.97;;
17488;SDS011;8861;52.644;4.734;2023-02-28T07:16:22;11.90;;;9.37;;
17488;SDS011;8861;52.644;4.734;2023-02-28T07:18:51;17.23;;;11.83;;
17488;SDS011;8861;52.644;4.734;2023-02-28T07:21:18;19.73;;;12.83;;
17488;SDS011;8861;52.644;4.734;2023-02-28T07:23:46;27.50;;;15.47;;
17488;SDS011;8861;52.644;4.734;2023-02-28T07:26:14;23.07;;;15.37;;
17488;SDS011;8861;52.644;4.734;2023-02-28T07:28:42;28.23;;;16.80;;
17488;SDS011;8861;52.644;4.734;2023-02-28T07:31:10;28.13;;;16.07;;
17488;SDS011;8861;52.644;4.734;2023-02-28T07:33:40;24.03;;;15.47;;
17488;SDS011;8861;52.644;4.734;2023-02-28T07:36:09;26.30;;;15.77;;
17488;SDS011;8861;52.644;4.734;2023-02-28T07:38:40;24.90;;;14.90;;
17488;SDS011;8861;52.644;4.734;2023-02-28T07:41:08;23.67;;;14.90;;
17488;SDS011;8861;52.644;4.734;2023-02-28T07:43:35;21.40;;;13.63;;
17488;SDS011;8861;52.644;4.734;2023-02-28T07:46:03;29.10;;;17.80;;
17488;SDS011;8861;52.644;4.734;2023-02-28T07:48:32;28.43;;;18.27;;
17488;SDS011;8861;52.644;4.734;2023-02-28T07:51:01;26.60;;;17.33;;
17488;SDS011;8861;52.644;4.734;2023-02-28T07:53:28;26.43;;;18.00;;
17488;SDS011;8861;52.644;4.734;2023-02-28T07:55:56;32.33;;;20.93;;
17488;SDS011;8861;52.644;4.734;2023-02-28T07:58:23;40.57;;;23.23;;
17488;SDS011;8861;52.644;4.734;2023-02-28T08:00:51;31.37;;;20.60;;
17488;SDS011;8861;52.644;4.734;2023-02-28T08:03:18;36.73;;;22.77;;
17488;SDS011;8861;52.644;4.734;2023-02-28T08:05:46;37.23;;;22.17;;
17488;SDS011;8861;52.644;4.734;2023-02-28T08:08:15;33.30;;;21.60;;
17488;SDS011;8861;52.644;4.734;2023-02-28T08:10:42;33.93;;;21.50;;
17488;SDS011;8861;52.644;4.734;2023-02-28T08:13:10;34.97;;;22.20;;
17488;SDS011;8861;52.644;4.734;2023-02-28T08:15:37;36.77;;;23.13;;
17488;SDS011;8861;52.644;4.734;2023-02-28T08:18:06;33.40;;;21.70;;
17488;SDS011;8861;52.644;4.734;2023-02-28T08:20:34;44.10;;;26.13;;
17488;SDS011;8861;52.644;4.734;2023-02-28T08:23:00;39.20;;;24.00;;
17488;SDS011;8861;52.644;4.734;2023-02-28T08:25:29;38.87;;;23.33;;
17488;SDS011;8861;52.644;4.734;2023-02-28T08:27:56;38.67;;;23.90;;
17488;SDS011;8861;52.644;4.734;2023-02-28T08:30:23;41.27;;;24.80;;
17488;SDS011;8861;52.644;4.734;2023-02-28T08:32:50;42.87;;;25.30;;
17488;SDS011;8861;52.644;4.734;2023-02-28T08:35:17;39.03;;;23.80;;
17488;SDS011;8861;52.644;4.734;2023-02-28T08:37:44;35.10;;;21.67;;
17488;SDS011;8861;52.644;4.734;2023-02-28T08:40:13;33.83;;;20.33;;
17488;SDS011;8861;52.644;4.734;2023-02-28T08:42:45;35.33;;;21.10;;
17488;SDS011;8861;52.644;4.734;2023-02-28T08:45:12;35.67;;;22.10;;
17488;SDS011;8861;52.644;4.734;2023-02-28T08:47:40;36.27;;;22.60;;
17488;SDS011;8861;52.644;4.734;2023-02-28T08:50:07;29.63;;;19.90;;
17488;SDS011;8861;52.644;4.734;2023-02-28T08:52:35;29.53;;;20.20;;
17488;SDS011;8861;52.644;4.734;2023-02-28T08:55:03;36.20;;;21.20;;
17488;SDS011;8861;52.644;4.734;2023-02-28T08:57:31;29.57;;;20.00;;
17488;SDS011;8861;52.644;4.734;2023-02-28T08:59:59;33.07;;;22.00;;
17488;SDS011;8861;52.644;4.734;2023-02-28T09:02:29;29.60;;;20.57;;
17488;SDS011;8861;52.644;4.734;2023-02-28T09:04:56;32.70;;;22.27;;
17488;SDS011;8861;52.644;4.734;2023-02-28T09:07:24;28.23;;;20.03;;
17488;SDS011;8861;52.644;4.734;2023-02-28T09:09:51;30.43;;;21.33;;
17488;SDS011;8861;52.644;4.734;2023-02-28T09:12:23;40.50;;;25.73;;
17488;SDS011;8861;52.644;4.734;2023-02-28T09:14:51;39.70;;;25.70;;
17488;SDS011;8861;52.644;4.734;2023-02-28T09:17:20;38.90;;;26.53;;
17488;SDS011;8861;52.644;4.734;2023-02-28T09:19:47;34.90;;;22.97;;
17488;SDS011;8861;52.644;4.734;2023-02-28T09:22:14;33.27;;;22.70;;
17488;SDS011;8861;52.644;4.734;2023-02-28T09:24:41;30.73;;;22.23;;
17488;SDS011;8861;52.644;4.734;2023-02-28T09:27:09;31.87;;;22.03;;
17488;SDS011;8861;52.644;4.734;2023-02-28T09:29:36;34.83;;;23.47;;
17488;SDS011;8861;52.644;4.734;2023-02-28T09:32:03;28.43;;;20.40;;
17488;SDS011;8861;52.644;4.734;2023-02-28T09:34:33;28.77;;;20.67;;
17488;SDS011;8861;52.644;4.734;2023-02-28T09:37:02;25.90;;;19.10;;
17488;SDS011;8861;52.644;4.734;2023-02-28T09:39:29;27.67;;;20.07;;
17488;SDS011;8861;52.644;4.734;2023-02-28T09:41:56;36.87;;;24.20;;
17488;SDS011;8861;52.644;4.734;2023-02-28T09:44:26;38.10;;;25.73;;
17488;SDS011;8861;52.644;4.734;2023-02-28T09:46:58;34.10;;;23.47;;
17488;SDS011;8861;52.644;4.734;2023-02-28T09:49:34;35.70;;;22.40;;
17488;SDS011;8861;52.644;4.734;2023-02-28T09:52:07;46.00;;;29.60;;
17488;SDS011;8861;52.644;4.734;2023-02-28T09:54:37;45.80;;;28.67;;
17488;SDS011;8861;52.644;4.734;2023-02-28T09:57:06;40.50;;;25.73;;
17488;SDS011;8861;52.644;4.734;2023-02-28T09:59:39;35.97;;;23.07;;
17488;SDS011;8861;52.644;4.734;2023-02-28T10:02:17;33.33;;;22.90;;
17488;SDS011;8861;52.644;4.734;2023-02-28T10:04:57;32.17;;;21.27;;
17488;SDS011;8861;52.644;4.734;2023-02-28T10:07:34;32.50;;;20.37;;
17488;SDS011;8861;52.644;4.734;2023-02-28T10:10:16;28.67;;;19.20;;
17488;SDS011;8861;52.644;4.734;2023-02-28T10:12:47;25.53;;;16.43;;
17488;SDS011;8861;52.644;4.734;2023-02-28T10:15:19;21.80;;;14.73;;
17488;SDS011;8861;52.644;4.734;2023-02-28T10:17:49;23.63;;;16.37;;
17488;SDS011;8861;52.644;4.734;2023-02-28T10:20:24;19.90;;;13.83;;
17488;SDS011;8861;52.644;4.734;2023-02-28T10:22:57;23.07;;;14.93;;
17488;SDS011;8861;52.644;4.734;2023-02-28T10:25:32;21.80;;;14.33;;
17488;SDS011;8861;52.644;4.734;2023-02-28T10:28:01;18.37;;;12.37;;
17488;SDS011;8861;52.644;4.734;2023-02-28T10:30:36;16.60;;;12.00;;
17488;SDS011;8861;52.644;4.734;2023-02-28T10:33:08;17.27;;;11.57;;
17488;SDS011;8861;52.644;4.734;2023-02-28T10:35:46;14.70;;;11.07;;
17488;SDS011;8861;52.644;4.734;2023-02-28T10:38:17;15.47;;;10.67;;
17488;SDS011;8861;52.644;4.734;2023-02-28T10:40:46;14.27;;;10.70;;
17488;SDS011;8861;52.644;4.734;2023-02-28T10:43:18;16.50;;;10.47;;
17488;SDS011;8861;52.644;4.734;2023-02-28T10:45:55;14.13;;;10.30;;
17488;SDS011;8861;52.644;4.734;2023-02-28T10:48:27;13.97;;;9.30;;
17488;SDS011;8861;52.644;4.734;2023-02-28T10:50:58;12.47;;;9.40;;
17488;SDS011;8861;52.644;4.734;2023-02-28T10:53:30;13.17;;;8.80;;
17488;SDS011;8861;52.644;4.734;2023-02-28T10:56:00;10.43;;;7.83;;
17488;SDS011;8861;52.644;4.734;2023-02-28T10:58:29;9.90;;;7.27;;
17488;SDS011;8861;52.644;4.734;2023-02-28T11:00:58;8.33;;;6.83;;
17488;SDS011;8861;52.644;4.734;2023-02-28T11:03:29;8.03;;;6.83;;
17488;SDS011;8861;52.644;4.734;2023-02-28T11:06:03;10.33;;;7.57;;
17488;SDS011;8861;52.644;4.734;2023-02-28T11:08:33;8.83;;;6.80;;
17488;SDS011;8861;52.644;4.734;2023-02-28T11:11:03;6.83;;;5.60;;
17488;SDS011;8861;52.644;4.734;2023-02-28T11:13:32;6.00;;;5.37;;
17488;SDS011;8861;52.644;4.734;2023-02-28T11:16:03;6.70;;;5.30;;
17488;SDS011;8861;52.644;4.734;2023-02-28T11:18:33;6.37;;;5.17;;
17488;SDS011;8861;52.644;4.734;2023-02-28T11:21:07;7.07;;;5.70;;
17488;SDS011;8861;52.644;4.734;2023-02-28T11:23:41;8.97;;;6.43;;
17488;SDS011;8861;52.644;4.734;2023-02-28T11:26:08;8.87;;;6.80;;
17488;SDS011;8861;52.644;4.734;2023-02-28T11:28:37;10.20;;;7.67;;
17488;SDS011;8861;52.644;4.734;2023-02-28T11:31:14;9.50;;;7.60;;
17488;SDS011;8861;52.644;4.734;2023-02-28T11:33:45;8.87;;;7.20;;
17488;SDS011;8861;52.644;4.734;2023-02-28T11:36:18;9.20;;;7.20;;
17488;SDS011;8861;52.644;4.734;2023-02-28T11:38:50;8.77;;;6.60;;
17488;SDS011;8861;52.644;4.734;2023-02-28T11:41:27;9.43;;;7.17;;
17488;SDS011;8861;52.644;4.734;2023-02-28T11:47:12;15.33;;;9.37;;
17488;SDS011;8861;52.644;4.734;2023-02-28T11:49:45;10.43;;;7.87;;
17488;SDS011;8861;52.644;4.734;2023-02-28T11:52:29;9.10;;;7.20;;
17488;SDS011;8861;52.644;4.734;2023-02-28T11:55:09;8.77;;;7.03;;
17488;SDS011;8861;52.644;4.734;2023-02-28T11:57:52;13.00;;;8.43;;
17488;SDS011;8861;52.644;4.734;2023-02-28T12:00:47;10.53;;;7.83;;
17488;SDS011;8861;52.644;4.734;2023-02-28T12:03:29;10.97;;;8.20;;
17488;SDS011;8861;52.644;4.734;2023-02-28T12:06:09;8.90;;;7.10;;
17488;SDS011;8861;52.644;4.734;2023-02-28T12:08:53;8.27;;;7.17;;
17488;SDS011;8861;52.644;4.734;2023-02-28T12:11:31;9.33;;;7.97;;
17488;SDS011;8861;52.644;4.734;2023-02-28T12:17:16;9.57;;;7.40;;
17488;SDS011;8861;52.644;4.734;2023-02-28T12:19:58;10.13;;;7.90;;
17488;SDS011;8861;52.644;4.734;2023-02-28T12:22:35;10.03;;;7.50;;
17488;SDS011;8861;52.644;4.734;2023-02-28T12:25:18;10.20;;;7.43;;
17488;SDS011;8861;52.644;4.734;2023-02-28T12:28:02;10.53;;;7.63;;
17488;SDS011;8861;52.644;4.734;2023-02-28T12:30:31;9.77;;;7.77;;
17488;SDS011;8861;52.644;4.734;2023-02-28T12:33:01;10.03;;;7.90;;
17488;SDS011;8861;52.644;4.734;2023-02-28T12:35:32;12.73;;;8.90;;
17488;SDS011;8861;52.644;4.734;2023-02-28T12:38:04;9.83;;;8.03;;
17488;SDS011;8861;52.644;4.734;2023-02-28T12:40:41;12.77;;;8.67;;
17488;SDS011;8861;52.644;4.734;2023-02-28T12:43:12;11.00;;;7.27;;
17488;SDS011;8861;52.644;4.734;2023-02-28T12:45:42;8.00;;;6.10;;
17488;SDS011;8861;52.644;4.734;2023-02-28T12:48:14;7.40;;;5.70;;
17488;SDS011;8861;52.644;4.734;2023-02-28T12:50:45;8.17;;;6.90;;
17488;SDS011;8861;52.644;4.734;2023-02-28T12:53:15;9.37;;;7.23;;
17488;SDS011;8861;52.644;4.734;2023-02-28T12:55:53;9.43;;;7.23;;
17488;SDS011;8861;52.644;4.734;2023-02-28T12:58:29;8.43;;;7.13;;
17488;SDS011;8861;52.644;4.734;2023-02-28T13:01:06;9.10;;;6.80;;
17488;SDS011;8861;52.644;4.734;2023-02-28T13:04:03;8.00;;;6.93;;
17488;SDS011;8861;52.644;4.734;2023-02-28T13:06:55;11.00;;;8.20;;
17488;SDS011;8861;52.644;4.734;2023-02-28T13:09:50;12.43;;;8.63;;
17488;SDS011;8861;52.644;4.734;2023-02-28T13:12:20;10.13;;;7.50;;
17488;SDS011;8861;52.644;4.734;2023-02-28T13:14:48;8.00;;;6.50;;
17488;SDS011;8861;52.644;4.734;2023-02-28T13:17:17;7.77;;;6.27;;
17488;SDS011;8861;52.644;4.734;2023-02-28T13:19:46;6.73;;;5.63;;
17488;SDS011;8861;52.644;4.734;2023-02-28T13:22:37;8.40;;;6.30;;
17488;SDS011;8861;52.644;4.734;2023-02-28T13:31:33;8.50;;;6.83;;
17488;SDS011;8861;52.644;4.734;2023-02-28T13:34:40;7.97;;;7.07;;
17488;SDS011;8861;52.644;4.734;2023-02-28T13:40:26;9.70;;;6.90;;
17488;SDS011;8861;52.644;4.734;2023-02-28T13:42:55;9.33;;;7.30;;
17488;SDS011;8861;52.644;4.734;2023-02-28T13:45:23;9.43;;;7.43;;
17488;SDS011;8861;52.644;4.734;2023-02-28T13:47:53;10.27;;;7.53;;
17488;SDS011;8861;52.644;4.734;2023-02-28T13:50:33;9.03;;;7.30;;
17488;SDS011;8861;52.644;4.734;2023-02-28T13:56:05;7.07;;;6.17;;
17488;SDS011;8861;52.644;4.734;2023-02-28T13:58:47;7.73;;;6.80;;
17488;SDS011;8861;52.644;4.734;2023-02-28T14:01:31;8.50;;;6.83;;
17488;SDS011;8861;52.644;4.734;2023-02-28T14:04:18;7.73;;;6.50;;
17488;SDS011;8861;52.644;4.734;2023-02-28T14:07:17;8.73;;;6.67;;
17488;SDS011;8861;52.644;4.734;2023-02-28T14:09:49;9.00;;;7.23;;
17488;SDS011;8861;52.644;4.734;2023-02-28T14:15:26;8.20;;;6.40;;
17488;SDS011;8861;52.644;4.734;2023-02-28T14:18:20;8.07;;;7.00;;
17488;SDS011;8861;52.644;4.734;2023-02-28T14:20:51;8.57;;;7.20;;
17488;SDS011;8861;52.644;4.734;2023-02-28T14:23:26;6.77;;;5.87;;
17488;SDS011;8861;52.644;4.734;2023-02-28T14:26:25;7.33;;;6.37;;
17488;SDS011;8861;52.644;4.734;2023-02-28T14:29:08;9.60;;;6.87;;
17488;SDS011;8861;52.644;4.734;2023-02-28T14:31:46;8.10;;;6.90;;
17488;SDS011;8861;52.644;4.734;2023-02-28T14:34:24;7.53;;;6.60;;
17488;SDS011;8861;52.644;4.734;2023-02-28T14:37:01;8.87;;;7.50;;
17488;SDS011;8861;52.644;4.734;2023-02-28T14:39:30;8.10;;;7.07;;
17488;SDS011;8861;52.644;4.734;2023-02-28T14:41:58;6.93;;;6.23;;
17488;SDS011;8861;52.644;4.734;2023-02-28T14:44:29;6.50;;;5.80;;
17488;SDS011;8861;52.644;4.734;2023-02-28T14:46:57;6.63;;;5.60;;
17488;SDS011;8861;52.644;4.734;2023-02-28T14:49:29;7.73;;;6.60;;
17488;SDS011;8861;52.644;4.734;2023-02-28T14:52:05;6.93;;;6.07;;
17488;SDS011;8861;52.644;4.734;2023-02-28T14:54:40;8.30;;;6.77;;
17488;SDS011;8861;52.644;4.734;2023-02-28T14:57:19;7.47;;;6.50;;
17488;SDS011;8861;52.644;4.734;2023-02-28T14:59:56;6.90;;;6.00;;
17488;SDS011;8861;52.644;4.734;2023-02-28T15:02:25;6.83;;;6.00;;
17488;SDS011;8861;52.644;4.734;2023-02-28T15:04:53;7.10;;;6.20;;
17488;SDS011;8861;52.644;4.734;2023-02-28T15:07:22;7.50;;;6.70;;
17488;SDS011;8861;52.644;4.734;2023-02-28T15:10:11;7.47;;;6.17;;
17488;SDS011;8861;52.644;4.734;2023-02-28T15:12:49;8.13;;;7.00;;
17488;SDS011;8861;52.644;4.734;2023-02-28T15:15:19;9.03;;;7.03;;
17488;SDS011;8861;52.644;4.734;2023-02-28T15:17:49;9.07;;;6.80;;
17488;SDS011;8861;52.644;4.734;2023-02-28T15:20:19;9.57;;;8.10;;
17488;SDS011;8861;52.644;4.734;2023-02-28T15:22:47;8.20;;;7.30;;
17488;SDS011;8861;52.644;4.734;2023-02-28T15:25:19;8.13;;;6.90;;
17488;SDS011;8861;52.644;4.734;2023-02-28T15:27:48;8.93;;;6.80;;
17488;SDS011;8861;52.644;4.734;2023-02-28T15:30:17;8.60;;;7.70;;
17488;SDS011;8861;52.644;4.734;2023-02-28T15:33:01;7.73;;;6.80;;
17488;SDS011;8861;52.644;4.734;2023-02-28T15:35:31;7.73;;;6.93;;
17488;SDS011;8861;52.644;4.734;2023-02-28T15:38:00;8.57;;;7.67;;
17488;SDS011;8861;52.644;4.734;2023-02-28T15:40:35;8.10;;;6.97;;
17488;SDS011;8861;52.644;4.734;2023-02-28T15:43:04;9.53;;;7.93;;
17488;SDS011;8861;52.644;4.734;2023-02-28T15:45:35;9.60;;;7.83;;